Limassol, Cyprus
Current Conditions -  °F | °C
As of 11:50 AM on Thursday 23 Oct 2014 (Local Time) from LCRA Reporting Station
Scattered Clouds Scattered Clouds  
Wind Chill: 23°   Ceiling: Unl
Heat Index: 23°   Visibility: 6mi
Dew Point: 12°   Wind: 5mph
Humidity: 50%   Direction: 10°N
Pressure: 29.97"   Gusts: NA
Location:  34.76°N, 32.95°E
Report Text: LCRA 230850Z 01004KT 9999 FEW030CB SCT110 23/12 Q1015 NOSIG
Loading
Personal Weather Stations






























Interactive Weather Map
Tropical Storm Tracking
New forecast layout! Learn more

10-Day Weather Forecast

Advertisements
Track Severe Weather on mobile